sensor_id;sensor_type;location;lat;lon;timestamp;P1;durP1;ratioP1;P2;durP2;ratioP2
34737;SDS011;39910;47.154;27.614;2024-02-16T00:01:49;10.20;;;9.70;;
34737;SDS011;39910;47.154;27.614;2024-02-16T00:04:14;10.20;;;9.70;;
34737;SDS011;39910;47.154;27.614;2024-02-16T00:06:39;9.85;;;9.45;;
34737;SDS011;39910;47.154;27.614;2024-02-16T00:09:05;10.00;;;9.55;;
34737;SDS011;39910;47.154;27.614;2024-02-16T00:11:30;10.30;;;9.80;;
34737;SDS011;39910;47.154;27.614;2024-02-16T00:13:56;10.00;;;9.50;;
34737;SDS011;39910;47.154;27.614;2024-02-16T00:16:22;9.88;;;9.48;;
34737;SDS011;39910;47.154;27.614;2024-02-16T00:18:47;9.80;;;9.40;;
34737;SDS011;39910;47.154;27.614;2024-02-16T00:21:12;9.77;;;9.38;;
34737;SDS011;39910;47.154;27.614;2024-02-16T00:23:38;9.70;;;9.30;;
34737;SDS011;39910;47.154;27.614;2024-02-16T00:26:03;9.88;;;9.48;;
34737;SDS011;39910;47.154;27.614;2024-02-16T00:28:32;9.60;;;9.20;;
34737;SDS011;39910;47.154;27.614;2024-02-16T00:30:57;9.77;;;9.38;;
34737;SDS011;39910;47.154;27.614;2024-02-16T00:33:23;9.90;;;9.50;;
34737;SDS011;39910;47.154;27.614;2024-02-16T00:35:49;9.75;;;9.35;;
34737;SDS011;39910;47.154;27.614;2024-02-16T00:38:14;10.25;;;9.75;;
34737;SDS011;39910;47.154;27.614;2024-02-16T00:40:40;10.00;;;9.50;;
34737;SDS011;39910;47.154;27.614;2024-02-16T00:43:09;9.85;;;9.40;;
34737;SDS011;39910;47.154;27.614;2024-02-16T00:45:34;10.15;;;9.65;;
34737;SDS011;39910;47.154;27.614;2024-02-16T00:47:59;9.75;;;9.35;;
34737;SDS011;39910;47.154;27.614;2024-02-16T00:50:27;10.18;;;9.68;;
34737;SDS011;39910;47.154;27.614;2024-02-16T00:52:52;9.90;;;9.48;;
34737;SDS011;39910;47.154;27.614;2024-02-16T00:55:17;9.85;;;9.45;;
34737;SDS011;39910;47.154;27.614;2024-02-16T00:57:43;10.20;;;9.70;;
34737;SDS011;39910;47.154;27.614;2024-02-16T01:00:08;9.63;;;9.23;;
34737;SDS011;39910;47.154;27.614;2024-02-16T01:02:34;10.60;;;10.10;;
34737;SDS011;39910;47.154;27.614;2024-02-16T01:05:00;10.27;;;9.77;;
34737;SDS011;39910;47.154;27.614;2024-02-16T01:07:27;9.90;;;9.50;;
34737;SDS011;39910;47.154;27.614;2024-02-16T01:09:52;10.30;;;9.80;;
34737;SDS011;39910;47.154;27.614;2024-02-16T01:12:18;10.00;;;9.50;;
34737;SDS011;39910;47.154;27.614;2024-02-16T01:14:43;9.85;;;9.45;;
34737;SDS011;39910;47.154;27.614;2024-02-16T01:17:08;10.00;;;9.52;;
34737;SDS011;39910;47.154;27.614;2024-02-16T01:19:34;10.20;;;9.70;;
34737;SDS011;39910;47.154;27.614;2024-02-16T01:22:00;9.80;;;9.40;;
34737;SDS011;39910;47.154;27.614;2024-02-16T01:24:25;9.60;;;9.20;;
34737;SDS011;39910;47.154;27.614;2024-02-16T01:26:51;9.52;;;9.13;;
34737;SDS011;39910;47.154;27.614;2024-02-16T01:29:18;10.30;;;9.80;;
34737;SDS011;39910;47.154;27.614;2024-02-16T01:31:43;10.30;;;9.80;;
34737;SDS011;39910;47.154;27.614;2024-02-16T01:34:09;9.90;;;9.48;;
34737;SDS011;39910;47.154;27.614;2024-02-16T01:36:34;10.35;;;9.85;;
34737;SDS011;39910;47.154;27.614;2024-02-16T01:39:00;9.77;;;9.38;;
34737;SDS011;39910;47.154;27.614;2024-02-16T01:41:25;9.60;;;9.20;;
34737;SDS011;39910;47.154;27.614;2024-02-16T01:43:53;10.10;;;9.60;;
34737;SDS011;39910;47.154;27.614;2024-02-16T01:46:20;10.02;;;9.52;;
34737;SDS011;39910;47.154;27.614;2024-02-16T01:48:45;9.68;;;9.27;;
34737;SDS011;39910;47.154;27.614;2024-02-16T01:51:10;9.40;;;9.00;;
34737;SDS011;39910;47.154;27.614;2024-02-16T01:53:36;9.70;;;9.30;;
34737;SDS011;39910;47.154;27.614;2024-02-16T01:56:05;9.40;;;9.00;;
34737;SDS011;39910;47.154;27.614;2024-02-16T01:58:30;9.40;;;9.00;;
34737;SDS011;39910;47.154;27.614;2024-02-16T02:00:56;10.20;;;9.70;;
34737;SDS011;39910;47.154;27.614;2024-02-16T02:03:21;9.60;;;9.20;;
34737;SDS011;39910;47.154;27.614;2024-02-16T02:05:47;9.80;;;9.40;;
34737;SDS011;39910;47.154;27.614;2024-02-16T02:08:13;9.70;;;9.30;;
34737;SDS011;39910;47.154;27.614;2024-02-16T02:10:39;10.35;;;9.85;;
34737;SDS011;39910;47.154;27.614;2024-02-16T02:13:05;9.60;;;9.20;;
34737;SDS011;39910;47.154;27.614;2024-02-16T02:15:31;9.90;;;9.45;;
34737;SDS011;39910;47.154;27.614;2024-02-16T02:17:56;9.77;;;9.38;;
34737;SDS011;39910;47.154;27.614;2024-02-16T02:20:24;9.80;;;9.40;;
34737;SDS011;39910;47.154;27.614;2024-02-16T02:22:49;10.20;;;9.70;;
34737;SDS011;39910;47.154;27.614;2024-02-16T02:25:15;9.48;;;9.07;;
34737;SDS011;39910;47.154;27.614;2024-02-16T02:27:40;10.05;;;9.55;;
34737;SDS011;39910;47.154;27.614;2024-02-16T02:30:06;9.73;;;9.32;;
34737;SDS011;39910;47.154;27.614;2024-02-16T02:32:31;9.90;;;9.50;;
34737;SDS011;39910;47.154;27.614;2024-02-16T02:34:57;10.05;;;9.55;;
34737;SDS011;39910;47.154;27.614;2024-02-16T02:37:23;10.10;;;9.60;;
34737;SDS011;39910;47.154;27.614;2024-02-16T02:39:48;9.93;;;9.43;;
34737;SDS011;39910;47.154;27.614;2024-02-16T02:42:13;9.70;;;9.30;;
34737;SDS011;39910;47.154;27.614;2024-02-16T02:44:39;10.10;;;9.60;;
34737;SDS011;39910;47.154;27.614;2024-02-16T02:47:05;9.75;;;9.35;;
34737;SDS011;39910;47.154;27.614;2024-02-16T02:49:30;9.70;;;9.30;;
34737;SDS011;39910;47.154;27.614;2024-02-16T02:51:58;10.10;;;9.60;;
34737;SDS011;39910;47.154;27.614;2024-02-16T02:54:23;9.63;;;9.23;;
34737;SDS011;39910;47.154;27.614;2024-02-16T02:56:49;9.70;;;9.30;;
34737;SDS011;39910;47.154;27.614;2024-02-16T02:59:14;9.73;;;9.32;;
34737;SDS011;39910;47.154;27.614;2024-02-16T03:01:40;10.05;;;9.55;;
34737;SDS011;39910;47.154;27.614;2024-02-16T03:04:05;9.82;;;9.38;;
34737;SDS011;39910;47.154;27.614;2024-02-16T03:06:31;9.93;;;9.50;;
34737;SDS011;39910;47.154;27.614;2024-02-16T03:08:56;10.00;;;9.50;;
34737;SDS011;39910;47.154;27.614;2024-02-16T03:11:21;9.68;;;9.27;;
34737;SDS011;39910;47.154;27.614;2024-02-16T03:13:47;9.70;;;9.30;;
34737;SDS011;39910;47.154;27.614;2024-02-16T03:16:13;10.13;;;9.63;;
34737;SDS011;39910;47.154;27.614;2024-02-16T03:18:39;10.00;;;9.50;;
34737;SDS011;39910;47.154;27.614;2024-02-16T03:21:04;10.20;;;9.70;;
34737;SDS011;39910;47.154;27.614;2024-02-16T03:23:30;9.50;;;9.10;;
34737;SDS011;39910;47.154;27.614;2024-02-16T03:25:56;9.90;;;9.50;;
34737;SDS011;39910;47.154;27.614;2024-02-16T03:28:21;9.65;;;9.25;;
34737;SDS011;39910;47.154;27.614;2024-02-16T03:30:46;9.98;;;9.48;;
34737;SDS011;39910;47.154;27.614;2024-02-16T03:33:12;9.95;;;9.45;;
34737;SDS011;39910;47.154;27.614;2024-02-16T03:35:38;9.88;;;9.40;;
34737;SDS011;39910;47.154;27.614;2024-02-16T03:38:03;9.82;;;9.40;;
34737;SDS011;39910;47.154;27.614;2024-02-16T03:40:29;9.70;;;9.30;;
34737;SDS011;39910;47.154;27.614;2024-02-16T03:42:54;9.68;;;9.27;;
34737;SDS011;39910;47.154;27.614;2024-02-16T03:45:20;9.25;;;8.85;;
34737;SDS011;39910;47.154;27.614;2024-02-16T03:47:46;9.98;;;9.48;;
34737;SDS011;39910;47.154;27.614;2024-02-16T03:50:14;9.70;;;9.30;;
34737;SDS011;39910;47.154;27.614;2024-02-16T03:52:40;9.60;;;9.20;;
34737;SDS011;39910;47.154;27.614;2024-02-16T03:55:06;9.90;;;9.45;;
34737;SDS011;39910;47.154;27.614;2024-02-16T03:57:32;9.85;;;9.43;;
34737;SDS011;39910;47.154;27.614;2024-02-16T03:59:57;10.00;;;9.50;;
34737;SDS011;39910;47.154;27.614;2024-02-16T04:02:22;9.32;;;8.93;;
34737;SDS011;39910;47.154;27.614;2024-02-16T04:04:48;9.85;;;9.40;;
34737;SDS011;39910;47.154;27.614;2024-02-16T04:07:13;9.93;;;9.45;;
34737;SDS011;39910;47.154;27.614;2024-02-16T04:09:39;10.23;;;9.73;;
34737;SDS011;39910;47.154;27.614;2024-02-16T04:12:05;9.70;;;9.30;;
34737;SDS011;39910;47.154;27.614;2024-02-16T04:14:30;9.70;;;9.30;;
34737;SDS011;39910;47.154;27.614;2024-02-16T04:16:56;9.88;;;9.43;;
34737;SDS011;39910;47.154;27.614;2024-02-16T04:19:25;9.63;;;9.23;;
34737;SDS011;39910;47.154;27.614;2024-02-16T04:21:50;10.05;;;9.57;;
34737;SDS011;39910;47.154;27.614;2024-02-16T04:24:16;10.10;;;9.60;;
34737;SDS011;39910;47.154;27.614;2024-02-16T04:26:42;10.20;;;9.70;;
34737;SDS011;39910;47.154;27.614;2024-02-16T04:29:07;10.00;;;9.50;;
34737;SDS011;39910;47.154;27.614;2024-02-16T04:31:32;10.13;;;9.63;;
34737;SDS011;39910;47.154;27.614;2024-02-16T04:33:58;10.32;;;9.82;;
34737;SDS011;39910;47.154;27.614;2024-02-16T04:36:24;10.00;;;9.50;;
34737;SDS011;39910;47.154;27.614;2024-02-16T04:38:49;10.20;;;9.70;;
34737;SDS011;39910;47.154;27.614;2024-02-16T04:41:15;10.13;;;9.63;;
34737;SDS011;39910;47.154;27.614;2024-02-16T04:43:40;9.73;;;9.32;;
34737;SDS011;39910;47.154;27.614;2024-02-16T04:46:06;10.98;;;10.48;;
34737;SDS011;39910;47.154;27.614;2024-02-16T04:48:31;10.20;;;9.70;;
34737;SDS011;39910;47.154;27.614;2024-02-16T04:50:59;9.55;;;9.15;;
34737;SDS011;39910;47.154;27.614;2024-02-16T04:53:24;10.10;;;9.60;;
34737;SDS011;39910;47.154;27.614;2024-02-16T04:55:49;10.13;;;9.63;;
34737;SDS011;39910;47.154;27.614;2024-02-16T04:58:15;10.50;;;10.00;;
34737;SDS011;39910;47.154;27.614;2024-02-16T05:00:40;10.25;;;9.75;;
34737;SDS011;39910;47.154;27.614;2024-02-16T05:03:06;10.50;;;10.00;;
34737;SDS011;39910;47.154;27.614;2024-02-16T05:05:31;10.25;;;9.75;;
34737;SDS011;39910;47.154;27.614;2024-02-16T05:07:57;10.15;;;9.65;;
34737;SDS011;39910;47.154;27.614;2024-02-16T05:10:22;10.35;;;9.85;;
34737;SDS011;39910;47.154;27.614;2024-02-16T05:12:47;9.95;;;9.50;;
34737;SDS011;39910;47.154;27.614;2024-02-16T05:15:13;10.15;;;9.65;;
34737;SDS011;39910;47.154;27.614;2024-02-16T05:17:39;10.40;;;9.90;;
34737;SDS011;39910;47.154;27.614;2024-02-16T05:20:08;10.10;;;9.60;;
34737;SDS011;39910;47.154;27.614;2024-02-16T05:22:35;10.63;;;10.13;;
34737;SDS011;39910;47.154;27.614;2024-02-16T05:25:00;10.63;;;10.13;;
34737;SDS011;39910;47.154;27.614;2024-02-16T05:27:25;10.23;;;9.73;;
34737;SDS011;39910;47.154;27.614;2024-02-16T05:29:51;10.48;;;9.98;;
34737;SDS011;39910;47.154;27.614;2024-02-16T05:32:17;10.70;;;10.20;;
34737;SDS011;39910;47.154;27.614;2024-02-16T05:34:42;9.88;;;9.38;;
34737;SDS011;39910;47.154;27.614;2024-02-16T05:37:07;10.50;;;10.00;;
34737;SDS011;39910;47.154;27.614;2024-02-16T05:39:35;10.20;;;9.70;;
34737;SDS011;39910;47.154;27.614;2024-02-16T05:42:08;10.00;;;9.50;;
34737;SDS011;39910;47.154;27.614;2024-02-16T05:44:33;10.35;;;9.85;;
34737;SDS011;39910;47.154;27.614;2024-02-16T05:46:59;10.30;;;9.80;;
34737;SDS011;39910;47.154;27.614;2024-02-16T05:49:24;10.23;;;9.73;;
34737;SDS011;39910;47.154;27.614;2024-02-16T05:51:50;10.00;;;9.55;;
34737;SDS011;39910;47.154;27.614;2024-02-16T05:54:34;10.50;;;10.00;;
34737;SDS011;39910;47.154;27.614;2024-02-16T05:56:59;9.80;;;9.40;;
34737;SDS011;39910;47.154;27.614;2024-02-16T05:59:24;10.55;;;10.05;;
34737;SDS011;39910;47.154;27.614;2024-02-16T06:01:52;10.30;;;9.80;;
34737;SDS011;39910;47.154;27.614;2024-02-16T06:04:17;10.10;;;9.60;;
34737;SDS011;39910;47.154;27.614;2024-02-16T06:06:42;10.18;;;9.68;;
34737;SDS011;39910;47.154;27.614;2024-02-16T06:09:08;9.90;;;9.50;;
34737;SDS011;39910;47.154;27.614;2024-02-16T06:11:36;10.05;;;9.57;;
34737;SDS011;39910;47.154;27.614;2024-02-16T06:14:01;10.43;;;9.93;;
34737;SDS011;39910;47.154;27.614;2024-02-16T06:16:27;10.48;;;9.98;;
34737;SDS011;39910;47.154;27.614;2024-02-16T06:18:53;10.25;;;9.75;;
34737;SDS011;39910;47.154;27.614;2024-02-16T06:21:18;9.45;;;9.05;;
34737;SDS011;39910;47.154;27.614;2024-02-16T06:23:43;10.50;;;10.00;;
34737;SDS011;39910;47.154;27.614;2024-02-16T06:26:09;9.60;;;9.20;;
34737;SDS011;39910;47.154;27.614;2024-02-16T06:28:34;9.95;;;9.48;;
34737;SDS011;39910;47.154;27.614;2024-02-16T06:30:59;9.90;;;9.40;;
34737;SDS011;39910;47.154;27.614;2024-02-16T06:33:25;10.00;;;9.50;;
34737;SDS011;39910;47.154;27.614;2024-02-16T06:35:50;9.70;;;9.30;;
34737;SDS011;39910;47.154;27.614;2024-02-16T06:38:16;10.00;;;9.50;;
34737;SDS011;39910;47.154;27.614;2024-02-16T06:40:42;10.57;;;10.07;;
34737;SDS011;39910;47.154;27.614;2024-02-16T06:43:08;10.32;;;9.82;;
34737;SDS011;39910;47.154;27.614;2024-02-16T06:45:33;9.90;;;9.40;;
34737;SDS011;39910;47.154;27.614;2024-02-16T06:47:59;9.90;;;9.40;;
34737;SDS011;39910;47.154;27.614;2024-02-16T06:50:25;10.30;;;9.80;;
34737;SDS011;39910;47.154;27.614;2024-02-16T06:52:50;9.60;;;9.20;;
34737;SDS011;39910;47.154;27.614;2024-02-16T06:55:16;9.30;;;8.90;;
34737;SDS011;39910;47.154;27.614;2024-02-16T06:57:41;10.07;;;9.57;;
34737;SDS011;39910;47.154;27.614;2024-02-16T07:00:07;9.80;;;9.40;;
34737;SDS011;39910;47.154;27.614;2024-02-16T07:02:33;9.70;;;9.30;;
34737;SDS011;39910;47.154;27.614;2024-02-16T07:04:59;10.38;;;9.88;;
34737;SDS011;39910;47.154;27.614;2024-02-16T07:07:24;10.00;;;9.50;;
34737;SDS011;39910;47.154;27.614;2024-02-16T07:09:50;9.73;;;9.32;;
34737;SDS011;39910;47.154;27.614;2024-02-16T07:12:15;10.50;;;10.00;;
34737;SDS011;39910;47.154;27.614;2024-02-16T07:14:40;10.43;;;9.93;;
34737;SDS011;39910;47.154;27.614;2024-02-16T07:17:06;10.15;;;9.65;;
34737;SDS011;39910;47.154;27.614;2024-02-16T07:19:34;9.50;;;9.10;;
34737;SDS011;39910;47.154;27.614;2024-02-16T07:22:00;9.70;;;9.30;;
34737;SDS011;39910;47.154;27.614;2024-02-16T07:24:25;10.30;;;9.80;;
34737;SDS011;39910;47.154;27.614;2024-02-16T07:26:52;10.25;;;9.75;;
34737;SDS011;39910;47.154;27.614;2024-02-16T07:29:18;10.10;;;9.60;;
34737;SDS011;39910;47.154;27.614;2024-02-16T07:31:43;10.27;;;9.77;;
34737;SDS011;39910;47.154;27.614;2024-02-16T07:34:09;10.10;;;9.60;;
34737;SDS011;39910;47.154;27.614;2024-02-16T07:36:36;10.20;;;9.70;;
34737;SDS011;39910;47.154;27.614;2024-02-16T07:39:01;10.70;;;10.20;;
34737;SDS011;39910;47.154;27.614;2024-02-16T07:41:30;10.00;;;9.50;;
34737;SDS011;39910;47.154;27.614;2024-02-16T07:43:55;10.80;;;10.30;;
34737;SDS011;39910;47.154;27.614;2024-02-16T07:46:20;9.80;;;9.40;;
34737;SDS011;39910;47.154;27.614;2024-02-16T07:48:46;9.75;;;9.35;;
34737;SDS011;39910;47.154;27.614;2024-02-16T07:51:11;10.10;;;9.60;;
34737;SDS011;39910;47.154;27.614;2024-02-16T07:53:36;10.15;;;9.65;;
34737;SDS011;39910;47.154;27.614;2024-02-16T07:56:02;10.40;;;9.90;;
34737;SDS011;39910;47.154;27.614;2024-02-16T07:58:29;10.25;;;9.75;;
34737;SDS011;39910;47.154;27.614;2024-02-16T08:00:54;9.82;;;9.43;;
34737;SDS011;39910;47.154;27.614;2024-02-16T08:03:20;10.50;;;10.00;;
34737;SDS011;39910;47.154;27.614;2024-02-16T08:05:45;10.80;;;10.30;;
34737;SDS011;39910;47.154;27.614;2024-02-16T08:08:11;9.90;;;9.45;;
34737;SDS011;39910;47.154;27.614;2024-02-16T08:10:36;10.20;;;9.70;;
34737;SDS011;39910;47.154;27.614;2024-02-16T08:13:01;11.85;;;11.25;;
34737;SDS011;39910;47.154;27.614;2024-02-16T08:15:28;11.05;;;10.55;;
34737;SDS011;39910;47.154;27.614;2024-02-16T08:17:54;11.43;;;10.82;;
34737;SDS011;39910;47.154;27.614;2024-02-16T08:20:20;11.30;;;10.70;;
34737;SDS011;39910;47.154;27.614;2024-02-16T08:22:45;11.40;;;10.80;;
34737;SDS011;39910;47.154;27.614;2024-02-16T08:25:11;10.60;;;10.10;;
34737;SDS011;39910;47.154;27.614;2024-02-16T08:27:37;11.65;;;11.05;;
34737;SDS011;39910;47.154;27.614;2024-02-16T08:30:03;11.40;;;10.85;;
34737;SDS011;39910;47.154;27.614;2024-02-16T08:32:29;11.43;;;10.82;;
34737;SDS011;39910;47.154;27.614;2024-02-16T08:34:54;11.93;;;11.32;;
34737;SDS011;39910;47.154;27.614;2024-02-16T08:37:21;11.52;;;10.93;;
34737;SDS011;39910;47.154;27.614;2024-02-16T08:39:46;11.52;;;10.93;;
34737;SDS011;39910;47.154;27.614;2024-02-16T08:42:12;11.68;;;11.07;;
34737;SDS011;39910;47.154;27.614;2024-02-16T08:44:37;11.82;;;11.23;;
34737;SDS011;39910;47.154;27.614;2024-02-16T08:47:05;11.80;;;11.20;;
34737;SDS011;39910;47.154;27.614;2024-02-16T08:49:31;11.27;;;10.77;;
34737;SDS011;39910;47.154;27.614;2024-02-16T08:51:56;10.95;;;10.45;;
34737;SDS011;39910;47.154;27.614;2024-02-16T08:54:22;11.38;;;10.80;;
34737;SDS011;39910;47.154;27.614;2024-02-16T08:56:47;11.45;;;10.88;;
34737;SDS011;39910;47.154;27.614;2024-02-16T08:59:13;10.55;;;10.05;;
34737;SDS011;39910;47.154;27.614;2024-02-16T09:01:39;11.60;;;11.00;;
34737;SDS011;39910;47.154;27.614;2024-02-16T09:04:04;11.35;;;10.80;;
34737;SDS011;39910;47.154;27.614;2024-02-16T09:06:30;11.30;;;10.80;;
34737;SDS011;39910;47.154;27.614;2024-02-16T09:08:55;11.52;;;10.95;;
34737;SDS011;39910;47.154;27.614;2024-02-16T09:11:21;11.38;;;10.88;;
34737;SDS011;39910;47.154;27.614;2024-02-16T09:13:47;12.13;;;11.52;;
34737;SDS011;39910;47.154;27.614;2024-02-16T09:16:12;11.63;;;11.02;;
34737;SDS011;39910;47.154;27.614;2024-02-16T09:18:38;12.70;;;12.05;;
34737;SDS011;39910;47.154;27.614;2024-02-16T09:21:04;12.43;;;11.82;;
34737;SDS011;39910;47.154;27.614;2024-02-16T09:23:29;12.02;;;11.43;;
34737;SDS011;39910;47.154;27.614;2024-02-16T09:25:55;11.10;;;10.60;;
34737;SDS011;39910;47.154;27.614;2024-02-16T09:28:20;11.93;;;11.32;;
34737;SDS011;39910;47.154;27.614;2024-02-16T09:30:46;11.93;;;11.32;;
34737;SDS011;39910;47.154;27.614;2024-02-16T09:33:11;12.05;;;11.45;;
34737;SDS011;39910;47.154;27.614;2024-02-16T09:35:37;11.43;;;10.88;;
34737;SDS011;39910;47.154;27.614;2024-02-16T09:38:03;11.45;;;10.88;;
34737;SDS011;39910;47.154;27.614;2024-02-16T09:40:29;11.73;;;11.13;;
34737;SDS011;39910;47.154;27.614;2024-02-16T09:42:54;12.00;;;11.40;;
34737;SDS011;39910;47.154;27.614;2024-02-16T09:45:20;11.70;;;11.10;;
34737;SDS011;39910;47.154;27.614;2024-02-16T09:47:46;11.52;;;10.95;;
34737;SDS011;39910;47.154;27.614;2024-02-16T09:50:14;12.15;;;11.55;;
34737;SDS011;39910;47.154;27.614;2024-02-16T09:52:40;12.43;;;11.82;;
34737;SDS011;39910;47.154;27.614;2024-02-16T09:55:15;11.95;;;11.35;;
34737;SDS011;39910;47.154;27.614;2024-02-16T09:57:41;11.50;;;10.95;;
34737;SDS011;39910;47.154;27.614;2024-02-16T10:00:06;11.32;;;10.82;;
34737;SDS011;39910;47.154;27.614;2024-02-16T10:02:50;11.85;;;11.25;;
34737;SDS011;39910;47.154;27.614;2024-02-16T10:05:16;12.10;;;11.50;;
34737;SDS011;39910;47.154;27.614;2024-02-16T10:07:42;12.43;;;11.82;;
34737;SDS011;39910;47.154;27.614;2024-02-16T10:10:23;12.50;;;11.90;;
34737;SDS011;39910;47.154;27.614;2024-02-16T10:12:49;11.30;;;10.80;;
34737;SDS011;39910;47.154;27.614;2024-02-16T10:15:21;11.93;;;11.32;;
34737;SDS011;39910;47.154;27.614;2024-02-16T10:18:06;12.25;;;11.65;;
34737;SDS011;39910;47.154;27.614;2024-02-16T10:20:33;12.05;;;11.45;;
34737;SDS011;39910;47.154;27.614;2024-02-16T10:23:05;11.90;;;11.30;;
34737;SDS011;39910;47.154;27.614;2024-02-16T10:25:30;11.75;;;11.15;;
34737;SDS011;39910;47.154;27.614;2024-02-16T10:27:56;12.43;;;11.82;;
34737;SDS011;39910;47.154;27.614;2024-02-16T10:30:23;12.30;;;11.70;;
34737;SDS011;39910;47.154;27.614;2024-02-16T10:32:51;11.77;;;11.18;;
34737;SDS011;39910;47.154;27.614;2024-02-16T10:35:16;12.50;;;11.90;;
34737;SDS011;39910;47.154;27.614;2024-02-16T10:37:43;12.50;;;11.90;;
34737;SDS011;39910;47.154;27.614;2024-02-16T10:40:09;12.15;;;11.55;;
34737;SDS011;39910;47.154;27.614;2024-02-16T10:42:38;12.45;;;11.85;;
34737;SDS011;39910;47.154;27.614;2024-02-16T10:45:04;12.48;;;11.88;;
34737;SDS011;39910;47.154;27.614;2024-02-16T10:47:30;12.38;;;11.77;;
34737;SDS011;39910;47.154;27.614;2024-02-16T10:49:55;12.70;;;12.10;;
34737;SDS011;39910;47.154;27.614;2024-02-16T10:52:21;12.57;;;11.98;;
34737;SDS011;39910;47.154;27.614;2024-02-16T10:54:47;12.23;;;11.63;;
34737;SDS011;39910;47.154;27.614;2024-02-16T10:57:12;11.95;;;11.35;;
34737;SDS011;39910;47.154;27.614;2024-02-16T10:59:41;12.18;;;11.57;;
34737;SDS011;39910;47.154;27.614;2024-02-16T11:02:08;11.90;;;11.30;;
34737;SDS011;39910;47.154;27.614;2024-02-16T11:04:37;11.75;;;11.15;;
34737;SDS011;39910;47.154;27.614;2024-02-16T11:17:37;11.13;;;10.57;;
34737;SDS011;39910;47.154;27.614;2024-02-16T11:20:03;12.40;;;11.80;;
34737;SDS011;39910;47.154;27.614;2024-02-16T11:22:32;11.77;;;11.18;;
34737;SDS011;39910;47.154;27.614;2024-02-16T11:25:04;12.43;;;11.82;;
34737;SDS011;39910;47.154;27.614;2024-02-16T11:27:30;11.52;;;10.93;;
34737;SDS011;39910;47.154;27.614;2024-02-16T11:29:57;11.63;;;11.02;;
34737;SDS011;39910;47.154;27.614;2024-02-16T11:32:25;11.98;;;11.38;;
34737;SDS011;39910;47.154;27.614;2024-02-16T11:34:50;12.23;;;11.63;;
34737;SDS011;39910;47.154;27.614;2024-02-16T11:37:16;12.18;;;11.57;;
34737;SDS011;39910;47.154;27.614;2024-02-16T11:39:41;12.70;;;12.05;;
34737;SDS011;39910;47.154;27.614;2024-02-16T11:42:09;12.10;;;11.50;;
34737;SDS011;39910;47.154;27.614;2024-02-16T11:44:39;12.50;;;11.88;;
34737;SDS011;39910;47.154;27.614;2024-02-16T11:47:08;12.25;;;11.65;;
34737;SDS011;39910;47.154;27.614;2024-02-16T11:49:37;11.80;;;11.20;;
34737;SDS011;39910;47.154;27.614;2024-02-16T11:52:05;11.77;;;11.18;;
34737;SDS011;39910;47.154;27.614;2024-02-16T11:54:32;10.80;;;10.30;;
34737;SDS011;39910;47.154;27.614;2024-02-16T11:56:57;12.52;;;11.93;;
34737;SDS011;39910;47.154;27.614;2024-02-16T11:59:23;12.27;;;11.68;;
34737;SDS011;39910;47.154;27.614;2024-02-16T12:01:52;12.15;;;11.55;;
34737;SDS011;39910;47.154;27.614;2024-02-16T12:04:24;13.00;;;12.30;;
34737;SDS011;39910;47.154;27.614;2024-02-16T12:06:51;11.63;;;11.02;;
34737;SDS011;39910;47.154;27.614;2024-02-16T12:09:16;11.02;;;10.52;;
34737;SDS011;39910;47.154;27.614;2024-02-16T12:11:42;10.82;;;10.32;;
34737;SDS011;39910;47.154;27.614;2024-02-16T12:14:07;10.90;;;10.40;;
34737;SDS011;39910;47.154;27.614;2024-02-16T12:16:32;11.07;;;10.57;;
34737;SDS011;39910;47.154;27.614;2024-02-16T12:19:04;11.35;;;10.85;;
34737;SDS011;39910;47.154;27.614;2024-02-16T12:21:30;11.05;;;10.55;;
34737;SDS011;39910;47.154;27.614;2024-02-16T12:23:56;11.90;;;11.30;;
34737;SDS011;39910;47.154;27.614;2024-02-16T12:26:21;11.35;;;10.85;;
34737;SDS011;39910;47.154;27.614;2024-02-16T12:28:47;11.85;;;11.25;;
34737;SDS011;39910;47.154;27.614;2024-02-16T12:31:18;11.70;;;11.10;;
34737;SDS011;39910;47.154;27.614;2024-02-16T12:33:43;11.65;;;11.05;;
34737;SDS011;39910;47.154;27.614;2024-02-16T12:36:08;12.10;;;11.50;;
34737;SDS011;39910;47.154;27.614;2024-02-16T12:38:34;11.75;;;11.15;;
34737;SDS011;39910;47.154;27.614;2024-02-16T12:40:59;11.35;;;10.85;;
34737;SDS011;39910;47.154;27.614;2024-02-16T12:43:25;10.88;;;10.38;;
34737;SDS011;39910;47.154;27.614;2024-02-16T12:45:50;10.88;;;10.38;;
34737;SDS011;39910;47.154;27.614;2024-02-16T12:48:16;10.70;;;10.20;;
34737;SDS011;39910;47.154;27.614;2024-02-16T12:50:41;10.80;;;10.30;;
34737;SDS011;39910;47.154;27.614;2024-02-16T12:53:07;10.70;;;10.20;;
34737;SDS011;39910;47.154;27.614;2024-02-16T12:55:32;10.55;;;10.05;;
34737;SDS011;39910;47.154;27.614;2024-02-16T12:57:58;10.82;;;10.32;;
34737;SDS011;39910;47.154;27.614;2024-02-16T13:00:23;11.10;;;10.60;;
34737;SDS011;39910;47.154;27.614;2024-02-16T13:02:48;11.48;;;10.90;;
34737;SDS011;39910;47.154;27.614;2024-02-16T13:05:14;11.98;;;11.38;;
34737;SDS011;39910;47.154;27.614;2024-02-16T13:07:39;11.95;;;11.35;;
34737;SDS011;39910;47.154;27.614;2024-02-16T13:10:06;11.30;;;10.80;;
34737;SDS011;39910;47.154;27.614;2024-02-16T13:12:32;11.18;;;10.68;;
34737;SDS011;39910;47.154;27.614;2024-02-16T13:14:58;11.40;;;10.90;;
34737;SDS011;39910;47.154;27.614;2024-02-16T13:17:23;11.82;;;11.23;;
34737;SDS011;39910;47.154;27.614;2024-02-16T13:19:49;11.77;;;11.18;;
34737;SDS011;39910;47.154;27.614;2024-02-16T13:22:14;11.88;;;11.27;;
34737;SDS011;39910;47.154;27.614;2024-02-16T13:24:40;11.77;;;11.18;;
34737;SDS011;39910;47.154;27.614;2024-02-16T13:27:06;12.07;;;11.48;;
34737;SDS011;39910;47.154;27.614;2024-02-16T13:29:32;12.10;;;11.50;;
34737;SDS011;39910;47.154;27.614;2024-02-16T13:31:57;11.02;;;10.52;;
34737;SDS011;39910;47.154;27.614;2024-02-16T13:34:22;11.68;;;11.07;;
34737;SDS011;39910;47.154;27.614;2024-02-16T13:36:48;11.73;;;11.13;;
34737;SDS011;39910;47.154;27.614;2024-02-16T13:39:14;11.50;;;10.90;;
34737;SDS011;39910;47.154;27.614;2024-02-16T13:41:41;12.23;;;11.63;;
34737;SDS011;39910;47.154;27.614;2024-02-16T13:44:08;11.57;;;10.98;;
34737;SDS011;39910;47.154;27.614;2024-02-16T13:46:34;11.95;;;11.35;;
34737;SDS011;39910;47.154;27.614;2024-02-16T13:48:59;11.75;;;11.15;;
34737;SDS011;39910;47.154;27.614;2024-02-16T13:51:25;11.55;;;10.95;;
34737;SDS011;39910;47.154;27.614;2024-02-16T13:53:50;10.70;;;10.20;;
34737;SDS011;39910;47.154;27.614;2024-02-16T13:56:16;11.13;;;10.63;;
34737;SDS011;39910;47.154;27.614;2024-02-16T13:58:42;11.65;;;11.05;;
34737;SDS011;39910;47.154;27.614;2024-02-16T14:01:07;11.68;;;11.07;;
34737;SDS011;39910;47.154;27.614;2024-02-16T14:03:33;11.48;;;10.93;;
34737;SDS011;39910;47.154;27.614;2024-02-16T14:05:59;11.20;;;10.70;;
34737;SDS011;39910;47.154;27.614;2024-02-16T14:08:24;11.00;;;10.50;;
34737;SDS011;39910;47.154;27.614;2024-02-16T14:10:51;10.68;;;10.18;;
34737;SDS011;39910;47.154;27.614;2024-02-16T14:13:17;10.77;;;10.27;;
34737;SDS011;39910;47.154;27.614;2024-02-16T14:15:42;11.73;;;11.13;;
34737;SDS011;39910;47.154;27.614;2024-02-16T14:18:08;11.90;;;11.30;;
34737;SDS011;39910;47.154;27.614;2024-02-16T14:20:34;11.05;;;10.55;;
34737;SDS011;39910;47.154;27.614;2024-02-16T14:23:00;11.30;;;10.73;;